sensor_id;sensor_type;location;lat;lon;timestamp;temperature;humidity
14317;DHT22;7242;50.858;6.586;2022-08-21T00:00:37;17.50;99.90
14317;DHT22;7242;50.858;6.586;2022-08-21T00:06:39;17.60;99.90
14317;DHT22;7242;50.858;6.586;2022-08-21T00:12:42;17.50;99.90
14317;DHT22;7242;50.858;6.586;2022-08-21T00:20:08;17.30;99.90
14317;DHT22;7242;50.858;6.586;2022-08-21T00:23:10;17.10;99.90
14317;DHT22;7242;50.858;6.586;2022-08-21T00:29:12;16.90;99.90
14317;DHT22;7242;50.858;6.586;2022-08-21T00:32:22;17.00;99.90
14317;DHT22;7242;50.858;6.586;2022-08-21T00:35:27;16.80;99.90
14317;DHT22;7242;50.858;6.586;2022-08-21T00:41:29;16.80;99.90
14317;DHT22;7242;50.858;6.586;2022-08-21T00:44:29;16.80;99.90
14317;DHT22;7242;50.858;6.586;2022-08-21T00:47:31;16.80;99.90
14317;DHT22;7242;50.858;6.586;2022-08-21T00:50:34;16.60;99.90
14317;DHT22;7242;50.858;6.586;2022-08-21T00:53:38;16.60;99.90
14317;DHT22;7242;50.858;6.586;2022-08-21T00:59:43;16.70;99.90
14317;DHT22;7242;50.858;6.586;2022-08-21T01:08:51;16.70;99.90
14317;DHT22;7242;50.858;6.586;2022-08-21T01:14:56;16.50;99.90
14317;DHT22;7242;50.858;6.586;2022-08-21T01:18:00;16.40;99.90
14317;DHT22;7242;50.858;6.586;2022-08-21T01:24:03;16.10;99.90
14317;DHT22;7242;50.858;6.586;2022-08-21T01:30:12;16.10;99.90
14317;DHT22;7242;50.858;6.586;2022-08-21T01:39:16;16.10;99.90
14317;DHT22;7242;50.858;6.586;2022-08-21T01:45:18;16.10;99.90
14317;DHT22;7242;50.858;6.586;2022-08-21T01:48:19;16.20;99.90
14317;DHT22;7242;50.858;6.586;2022-08-21T01:51:19;16.10;99.90
14317;DHT22;7242;50.858;6.586;2022-08-21T01:54:20;16.10;99.90
14317;DHT22;7242;50.858;6.586;2022-08-21T02:00:22;15.90;99.90
14317;DHT22;7242;50.858;6.586;2022-08-21T02:06:25;15.70;99.90
14317;DHT22;7242;50.858;6.586;2022-08-21T02:12:26;15.70;99.90
14317;DHT22;7242;50.858;6.586;2022-08-21T02:15:29;15.70;99.90
14317;DHT22;7242;50.858;6.586;2022-08-21T02:18:30;15.60;99.90
14317;DHT22;7242;50.858;6.586;2022-08-21T02:21:31;15.50;99.90
14317;DHT22;7242;50.858;6.586;2022-08-21T02:27:41;15.40;99.90
14317;DHT22;7242;50.858;6.586;2022-08-21T02:30:45;15.40;99.90
14317;DHT22;7242;50.858;6.586;2022-08-21T02:36:47;15.50;99.90
14317;DHT22;7242;50.858;6.586;2022-08-21T02:39:48;15.50;99.90
14317;DHT22;7242;50.858;6.586;2022-08-21T02:42:49;15.50;99.90
14317;DHT22;7242;50.858;6.586;2022-08-21T02:45:50;15.50;99.90
14317;DHT22;7242;50.858;6.586;2022-08-21T02:51:52;15.60;99.90
14317;DHT22;7242;50.858;6.586;2022-08-21T02:57:55;15.40;99.90
14317;DHT22;7242;50.858;6.586;2022-08-21T03:00:57;15.30;99.90
14317;DHT22;7242;50.858;6.586;2022-08-21T03:07:01;15.30;99.90
14317;DHT22;7242;50.858;6.586;2022-08-21T03:10:03;15.40;99.90
14317;DHT22;7242;50.858;6.586;2022-08-21T03:16:05;15.40;99.90
14317;DHT22;7242;50.858;6.586;2022-08-21T03:19:06;15.40;99.90
14317;DHT22;7242;50.858;6.586;2022-08-21T03:25:09;15.30;99.90
14317;DHT22;7242;50.858;6.586;2022-08-21T03:28:15;15.80;99.90
14317;DHT22;7242;50.858;6.586;2022-08-21T03:31:16;15.20;99.90
14317;DHT22;7242;50.858;6.586;2022-08-21T03:34:18;15.10;99.90
14317;DHT22;7242;50.858;6.586;2022-08-21T03:37:18;15.20;99.90
14317;DHT22;7242;50.858;6.586;2022-08-21T03:40:20;15.20;99.90
14317;DHT22;7242;50.858;6.586;2022-08-21T03:43:21;15.20;99.90
14317;DHT22;7242;50.858;6.586;2022-08-21T03:49:24;15.20;99.90
14317;DHT22;7242;50.858;6.586;2022-08-21T03:52:25;15.20;99.90
14317;DHT22;7242;50.858;6.586;2022-08-21T03:55:26;15.20;99.90
14317;DHT22;7242;50.858;6.586;2022-08-21T03:58:28;15.30;99.90
14317;DHT22;7242;50.858;6.586;2022-08-21T04:01:29;15.30;99.90
14317;DHT22;7242;50.858;6.586;2022-08-21T04:04:30;15.40;99.90
14317;DHT22;7242;50.858;6.586;2022-08-21T04:07:31;15.40;99.90
14317;DHT22;7242;50.858;6.586;2022-08-21T04:10:35;15.40;99.90
14317;DHT22;7242;50.858;6.586;2022-08-21T04:13:37;15.40;99.90
14317;DHT22;7242;50.858;6.586;2022-08-21T04:16:39;15.50;99.90
14317;DHT22;7242;50.858;6.586;2022-08-21T04:19:40;15.50;99.90
14317;DHT22;7242;50.858;6.586;2022-08-21T04:25:42;15.60;99.90
14317;DHT22;7242;50.858;6.586;2022-08-21T04:28:43;15.60;99.90
14317;DHT22;7242;50.858;6.586;2022-08-21T04:31:44;15.70;99.90
14317;DHT22;7242;50.858;6.586;2022-08-21T04:34:45;15.70;99.90
14317;DHT22;7242;50.858;6.586;2022-08-21T04:37:46;15.70;99.90
14317;DHT22;7242;50.858;6.586;2022-08-21T04:40:48;15.70;99.90
14317;DHT22;7242;50.858;6.586;2022-08-21T04:49:51;15.60;99.90
14317;DHT22;7242;50.858;6.586;2022-08-21T04:52:53;15.60;99.90
14317;DHT22;7242;50.858;6.586;2022-08-21T04:55:54;15.80;99.90
14317;DHT22;7242;50.858;6.586;2022-08-21T04:59:00;15.80;99.90
14317;DHT22;7242;50.858;6.586;2022-08-21T05:06:28;15.90;99.90
14317;DHT22;7242;50.858;6.586;2022-08-21T05:12:32;16.00;99.90
14317;DHT22;7242;50.858;6.586;2022-08-21T05:15:33;16.00;99.90
14317;DHT22;7242;50.858;6.586;2022-08-21T05:18:34;15.90;99.90
14317;DHT22;7242;50.858;6.586;2022-08-21T05:21:38;15.80;99.90
14317;DHT22;7242;50.858;6.586;2022-08-21T05:27:40;16.00;99.90
14317;DHT22;7242;50.858;6.586;2022-08-21T05:30:41;16.00;99.90
14317;DHT22;7242;50.858;6.586;2022-08-21T05:36:43;16.10;99.90
14317;DHT22;7242;50.858;6.586;2022-08-21T05:42:45;16.30;99.90
14317;DHT22;7242;50.858;6.586;2022-08-21T05:45:45;16.50;99.90
14317;DHT22;7242;50.858;6.586;2022-08-21T05:51:47;16.90;99.90
14317;DHT22;7242;50.858;6.586;2022-08-21T05:54:48;17.10;99.90
14317;DHT22;7242;50.858;6.586;2022-08-21T05:57:49;17.20;99.90
14317;DHT22;7242;50.858;6.586;2022-08-21T06:00:50;17.30;99.90
14317;DHT22;7242;50.858;6.586;2022-08-21T06:03:51;17.40;99.90
14317;DHT22;7242;50.858;6.586;2022-08-21T06:06:52;17.50;99.90
14317;DHT22;7242;50.858;6.586;2022-08-21T06:12:54;17.50;99.90
14317;DHT22;7242;50.858;6.586;2022-08-21T06:16:08;17.80;99.90
14317;DHT22;7242;50.858;6.586;2022-08-21T06:25:11;18.00;99.90
14317;DHT22;7242;50.858;6.586;2022-08-21T06:31:18;18.00;99.90
14317;DHT22;7242;50.858;6.586;2022-08-21T06:34:19;18.00;99.90
14317;DHT22;7242;50.858;6.586;2022-08-21T06:37:20;18.10;99.90
14317;DHT22;7242;50.858;6.586;2022-08-21T06:40:21;18.20;99.90
14317;DHT22;7242;50.858;6.586;2022-08-21T06:43:22;18.50;99.90
14317;DHT22;7242;50.858;6.586;2022-08-21T06:46:24;19.40;99.90
14317;DHT22;7242;50.858;6.586;2022-08-21T06:49:27;19.80;99.90
14317;DHT22;7242;50.858;6.586;2022-08-21T06:52:27;20.40;99.90
14317;DHT22;7242;50.858;6.586;2022-08-21T06:55:28;21.70;99.90
14317;DHT22;7242;50.858;6.586;2022-08-21T07:04:32;27.80;99.90
14317;DHT22;7242;50.858;6.586;2022-08-21T07:07:33;27.90;99.90
14317;DHT22;7242;50.858;6.586;2022-08-21T07:10:33;30.00;99.90
14317;DHT22;7242;50.858;6.586;2022-08-21T07:13:34;32.90;99.90
14317;DHT22;7242;50.858;6.586;2022-08-21T07:16:36;33.40;99.90
14317;DHT22;7242;50.858;6.586;2022-08-21T07:19:36;34.10;99.90
14317;DHT22;7242;50.858;6.586;2022-08-21T07:22:38;34.80;98.20
14317;DHT22;7242;50.858;6.586;2022-08-21T07:25:39;35.70;95.90
14317;DHT22;7242;50.858;6.586;2022-08-21T07:28:40;35.70;96.20
14317;DHT22;7242;50.858;6.586;2022-08-21T07:31:40;36.30;93.50
14317;DHT22;7242;50.858;6.586;2022-08-21T07:34:42;37.20;90.70
14317;DHT22;7242;50.858;6.586;2022-08-21T07:37:43;37.80;87.10
14317;DHT22;7242;50.858;6.586;2022-08-21T07:40:44;38.40;84.20
14317;DHT22;7242;50.858;6.586;2022-08-21T07:43:45;38.80;80.30
14317;DHT22;7242;50.858;6.586;2022-08-21T07:46:46;38.90;77.80
14317;DHT22;7242;50.858;6.586;2022-08-21T07:49:47;39.00;78.20
14317;DHT22;7242;50.858;6.586;2022-08-21T07:52:48;40.00;73.10
14317;DHT22;7242;50.858;6.586;2022-08-21T07:55:49;40.30;70.40
14317;DHT22;7242;50.858;6.586;2022-08-21T07:58:49;40.30;70.90
14317;DHT22;7242;50.858;6.586;2022-08-21T08:01:50;40.70;69.50
14317;DHT22;7242;50.858;6.586;2022-08-21T08:04:51;41.10;65.50
14317;DHT22;7242;50.858;6.586;2022-08-21T08:07:52;41.20;63.50
14317;DHT22;7242;50.858;6.586;2022-08-21T08:10:54;41.10;62.20
14317;DHT22;7242;50.858;6.586;2022-08-21T08:13:56;40.80;61.40
14317;DHT22;7242;50.858;6.586;2022-08-21T08:19:59;40.00;60.80
14317;DHT22;7242;50.858;6.586;2022-08-21T08:26:02;36.70;64.90
14317;DHT22;7242;50.858;6.586;2022-08-21T08:29:03;35.50;67.80
14317;DHT22;7242;50.858;6.586;2022-08-21T08:35:06;33.20;72.10
14317;DHT22;7242;50.858;6.586;2022-08-21T08:38:07;32.30;73.80
14317;DHT22;7242;50.858;6.586;2022-08-21T08:41:19;31.40;76.30
14317;DHT22;7242;50.858;6.586;2022-08-21T08:44:23;30.40;78.90
14317;DHT22;7242;50.858;6.586;2022-08-21T08:47:25;29.80;81.50
14317;DHT22;7242;50.858;6.586;2022-08-21T08:53:48;29.00;85.80
14317;DHT22;7242;50.858;6.586;2022-08-21T08:59:56;28.10;90.00
14317;DHT22;7242;50.858;6.586;2022-08-21T09:03:00;27.70;91.00
14317;DHT22;7242;50.858;6.586;2022-08-21T09:16:29;27.00;93.70
14317;DHT22;7242;50.858;6.586;2022-08-21T09:26:27;26.50;96.30
14317;DHT22;7242;50.858;6.586;2022-08-21T09:29:33;26.50;96.20
14317;DHT22;7242;50.858;6.586;2022-08-21T09:32:36;26.40;97.50
14317;DHT22;7242;50.858;6.586;2022-08-21T09:35:51;26.40;97.80
14317;DHT22;7242;50.858;6.586;2022-08-21T09:38:54;26.10;98.10
14317;DHT22;7242;50.858;6.586;2022-08-21T09:42:01;25.90;98.60
14317;DHT22;7242;50.858;6.586;2022-08-21T09:45:16;25.80;98.80
14317;DHT22;7242;50.858;6.586;2022-08-21T09:48:22;25.90;98.90
14317;DHT22;7242;50.858;6.586;2022-08-21T09:51:32;25.80;99.60
14317;DHT22;7242;50.858;6.586;2022-08-21T09:54:37;25.50;99.90
14317;DHT22;7242;50.858;6.586;2022-08-21T09:57:39;25.40;99.90
14317;DHT22;7242;50.858;6.586;2022-08-21T10:00:39;25.50;99.90
14317;DHT22;7242;50.858;6.586;2022-08-21T10:06:41;25.60;99.90
14317;DHT22;7242;50.858;6.586;2022-08-21T10:12:58;25.90;99.90
14317;DHT22;7242;50.858;6.586;2022-08-21T10:19:36;25.90;99.90
14317;DHT22;7242;50.858;6.586;2022-08-21T10:23:07;25.90;99.90
14317;DHT22;7242;50.858;6.586;2022-08-21T10:36:13;25.70;99.90
14317;DHT22;7242;50.858;6.586;2022-08-21T10:55:16;26.10;99.90
14317;DHT22;7242;50.858;6.586;2022-08-21T10:58:23;26.20;99.90
14317;DHT22;7242;50.858;6.586;2022-08-21T11:01:33;26.00;99.90
14317;DHT22;7242;50.858;6.586;2022-08-21T11:07:54;26.30;99.90
14317;DHT22;7242;50.858;6.586;2022-08-21T11:11:09;26.50;99.90
14317;DHT22;7242;50.858;6.586;2022-08-21T11:14:34;26.60;99.90
14317;DHT22;7242;50.858;6.586;2022-08-21T11:17:47;26.80;99.90
14317;DHT22;7242;50.858;6.586;2022-08-21T11:30:17;26.90;99.90
14317;DHT22;7242;50.858;6.586;2022-08-21T11:49:46;26.70;98.90
14317;DHT22;7242;50.858;6.586;2022-08-21T11:52:52;26.70;99.90
14317;DHT22;7242;50.858;6.586;2022-08-21T11:56:00;26.80;99.40
14317;DHT22;7242;50.858;6.586;2022-08-21T11:59:06;26.80;99.30
14317;DHT22;7242;50.858;6.586;2022-08-21T12:02:14;26.80;99.40
14317;DHT22;7242;50.858;6.586;2022-08-21T12:05:33;26.90;99.20
14317;DHT22;7242;50.858;6.586;2022-08-21T12:18:29;27.10;99.70
14317;DHT22;7242;50.858;6.586;2022-08-21T12:21:31;27.10;99.20
14317;DHT22;7242;50.858;6.586;2022-08-21T12:24:43;27.00;99.50
14317;DHT22;7242;50.858;6.586;2022-08-21T12:27:51;27.10;99.90
14317;DHT22;7242;50.858;6.586;2022-08-21T12:30:53;27.20;99.90
14317;DHT22;7242;50.858;6.586;2022-08-21T12:34:01;27.30;99.80
14317;DHT22;7242;50.858;6.586;2022-08-21T12:37:09;27.30;99.30
14317;DHT22;7242;50.858;6.586;2022-08-21T12:40:31;27.30;98.80
14317;DHT22;7242;50.858;6.586;2022-08-21T12:44:28;27.30;98.50
14317;DHT22;7242;50.858;6.586;2022-08-21T12:47:11;27.40;99.00
14317;DHT22;7242;50.858;6.586;2022-08-21T12:50:19;27.40;98.10
14317;DHT22;7242;50.858;6.586;2022-08-21T12:53:38;27.40;98.00
14317;DHT22;7242;50.858;6.586;2022-08-21T12:56:40;27.30;98.60
14317;DHT22;7242;50.858;6.586;2022-08-21T12:59:41;27.40;98.30
14317;DHT22;7242;50.858;6.586;2022-08-21T13:02:49;27.40;97.50
14317;DHT22;7242;50.858;6.586;2022-08-21T13:05:51;27.30;97.40
14317;DHT22;7242;50.858;6.586;2022-08-21T13:08:58;27.30;97.80
14317;DHT22;7242;50.858;6.586;2022-08-21T13:12:07;27.30;97.10
14317;DHT22;7242;50.858;6.586;2022-08-21T13:15:09;27.30;97.50
14317;DHT22;7242;50.858;6.586;2022-08-21T13:18:24;27.30;97.60
14317;DHT22;7242;50.858;6.586;2022-08-21T13:21:34;27.10;97.20
14317;DHT22;7242;50.858;6.586;2022-08-21T13:24:37;27.00;97.50
14317;DHT22;7242;50.858;6.586;2022-08-21T13:27:39;27.00;97.70
14317;DHT22;7242;50.858;6.586;2022-08-21T13:30:49;27.00;98.10
14317;DHT22;7242;50.858;6.586;2022-08-21T13:36:56;26.90;97.70
14317;DHT22;7242;50.858;6.586;2022-08-21T13:39:58;26.90;98.10
14317;DHT22;7242;50.858;6.586;2022-08-21T13:42:59;26.50;97.90
14317;DHT22;7242;50.858;6.586;2022-08-21T13:46:02;26.50;98.00
14317;DHT22;7242;50.858;6.586;2022-08-21T13:49:08;26.50;98.10
14317;DHT22;7242;50.858;6.586;2022-08-21T13:52:23;26.70;97.90
14317;DHT22;7242;50.858;6.586;2022-08-21T13:55:25;26.70;98.50
14317;DHT22;7242;50.858;6.586;2022-08-21T13:58:45;26.80;97.90
14317;DHT22;7242;50.858;6.586;2022-08-21T14:01:53;26.90;97.50
14317;DHT22;7242;50.858;6.586;2022-08-21T14:05:00;27.00;97.00
14317;DHT22;7242;50.858;6.586;2022-08-21T14:08:12;26.90;96.30
14317;DHT22;7242;50.858;6.586;2022-08-21T14:14:27;26.80;96.90
14317;DHT22;7242;50.858;6.586;2022-08-21T14:17:32;26.70;96.60
14317;DHT22;7242;50.858;6.586;2022-08-21T14:20:35;26.60;96.50
14317;DHT22;7242;50.858;6.586;2022-08-21T14:23:36;26.50;96.70
14317;DHT22;7242;50.858;6.586;2022-08-21T14:26:45;26.40;97.40
14317;DHT22;7242;50.858;6.586;2022-08-21T14:32:48;26.30;97.80
14317;DHT22;7242;50.858;6.586;2022-08-21T14:35:49;26.30;97.70
14317;DHT22;7242;50.858;6.586;2022-08-21T14:41:52;26.30;98.40
14317;DHT22;7242;50.858;6.586;2022-08-21T14:44:57;26.30;98.60
14317;DHT22;7242;50.858;6.586;2022-08-21T14:51:01;26.20;97.90
14317;DHT22;7242;50.858;6.586;2022-08-21T14:54:02;26.20;97.70
14317;DHT22;7242;50.858;6.586;2022-08-21T14:57:08;26.30;97.70
14317;DHT22;7242;50.858;6.586;2022-08-21T15:00:12;26.30;98.00
14317;DHT22;7242;50.858;6.586;2022-08-21T15:03:13;26.40;97.80
14317;DHT22;7242;50.858;6.586;2022-08-21T15:06:14;26.50;97.80
14317;DHT22;7242;50.858;6.586;2022-08-21T15:09:16;26.60;97.20
14317;DHT22;7242;50.858;6.586;2022-08-21T15:12:17;27.10;97.30
14317;DHT22;7242;50.858;6.586;2022-08-21T15:15:18;26.80;96.00
14317;DHT22;7242;50.858;6.586;2022-08-21T15:18:23;26.80;95.40
14317;DHT22;7242;50.858;6.586;2022-08-21T15:21:24;26.90;95.00
14317;DHT22;7242;50.858;6.586;2022-08-21T15:24:26;26.90;95.40
14317;DHT22;7242;50.858;6.586;2022-08-21T15:27:26;26.90;95.50
14317;DHT22;7242;50.858;6.586;2022-08-21T15:30:29;26.80;95.10
14317;DHT22;7242;50.858;6.586;2022-08-21T15:33:30;26.80;94.90
14317;DHT22;7242;50.858;6.586;2022-08-21T15:36:31;26.80;94.30
14317;DHT22;7242;50.858;6.586;2022-08-21T15:42:33;26.60;94.10
14317;DHT22;7242;50.858;6.586;2022-08-21T15:48:35;26.70;93.90
14317;DHT22;7242;50.858;6.586;2022-08-21T15:51:36;26.60;93.10
14317;DHT22;7242;50.858;6.586;2022-08-21T15:54:37;26.70;92.20
14317;DHT22;7242;50.858;6.586;2022-08-21T15:57:42;26.80;91.90
14317;DHT22;7242;50.858;6.586;2022-08-21T16:00:43;26.70;91.40
14317;DHT22;7242;50.858;6.586;2022-08-21T16:03:48;26.60;91.60
14317;DHT22;7242;50.858;6.586;2022-08-21T16:09:50;26.50;92.10
14317;DHT22;7242;50.858;6.586;2022-08-21T16:12:57;26.40;92.50
14317;DHT22;7242;50.858;6.586;2022-08-21T16:15:59;26.40;92.50
14317;DHT22;7242;50.858;6.586;2022-08-21T16:28:06;26.00;93.90
14317;DHT22;7242;50.858;6.586;2022-08-21T16:34:14;25.80;94.50
14317;DHT22;7242;50.858;6.586;2022-08-21T16:37:16;25.70;95.10
14317;DHT22;7242;50.858;6.586;2022-08-21T16:43:21;25.50;95.90
14317;DHT22;7242;50.858;6.586;2022-08-21T16:49:24;25.30;96.60
14317;DHT22;7242;50.858;6.586;2022-08-21T16:55:26;25.20;96.80
14317;DHT22;7242;50.858;6.586;2022-08-21T17:01:31;25.10;98.50
14317;DHT22;7242;50.858;6.586;2022-08-21T17:04:32;25.10;99.70
14317;DHT22;7242;50.858;6.586;2022-08-21T17:07:33;25.10;99.90
14317;DHT22;7242;50.858;6.586;2022-08-21T17:10:35;25.10;99.90
14317;DHT22;7242;50.858;6.586;2022-08-21T17:13:36;24.90;99.90
14317;DHT22;7242;50.858;6.586;2022-08-21T17:16:40;24.90;99.90
14317;DHT22;7242;50.858;6.586;2022-08-21T17:22:42;24.80;99.90
14317;DHT22;7242;50.858;6.586;2022-08-21T17:25:45;24.80;99.90
14317;DHT22;7242;50.858;6.586;2022-08-21T17:31:48;24.70;99.90
14317;DHT22;7242;50.858;6.586;2022-08-21T17:37:50;24.50;99.90
14317;DHT22;7242;50.858;6.586;2022-08-21T17:40:52;24.50;99.90
14317;DHT22;7242;50.858;6.586;2022-08-21T17:46:54;24.40;99.90
14317;DHT22;7242;50.858;6.586;2022-08-21T17:49:55;24.30;99.90
14317;DHT22;7242;50.858;6.586;2022-08-21T17:52:56;24.30;99.90
14317;DHT22;7242;50.858;6.586;2022-08-21T17:55:57;24.30;99.90
14317;DHT22;7242;50.858;6.586;2022-08-21T18:01:59;24.20;99.90
14317;DHT22;7242;50.858;6.586;2022-08-21T18:05:01;24.20;99.90
14317;DHT22;7242;50.858;6.586;2022-08-21T18:08:02;24.20;99.90
14317;DHT22;7242;50.858;6.586;2022-08-21T18:11:03;24.20;99.90
14317;DHT22;7242;50.858;6.586;2022-08-21T18:14:05;24.10;99.90
14317;DHT22;7242;50.858;6.586;2022-08-21T18:17:08;24.00;99.90
14317;DHT22;7242;50.858;6.586;2022-08-21T18:20:10;24.00;99.90
14317;DHT22;7242;50.858;6.586;2022-08-21T18:23:11;23.90;99.90
14317;DHT22;7242;50.858;6.586;2022-08-21T18:26:20;23.80;99.90
14317;DHT22;7242;50.858;6.586;2022-08-21T18:29:24;23.70;99.90
14317;DHT22;7242;50.858;6.586;2022-08-21T18:32:26;23.60;99.90
14317;DHT22;7242;50.858;6.586;2022-08-21T18:35:27;23.60;99.90
14317;DHT22;7242;50.858;6.586;2022-08-21T18:38:29;23.50;99.90
14317;DHT22;7242;50.858;6.586;2022-08-21T18:44:32;23.40;99.90
14317;DHT22;7242;50.858;6.586;2022-08-21T18:47:40;23.30;99.90
14317;DHT22;7242;50.858;6.586;2022-08-21T18:50:43;23.30;99.90
14317;DHT22;7242;50.858;6.586;2022-08-21T18:59:47;23.10;99.90
14317;DHT22;7242;50.858;6.586;2022-08-21T19:02:48;23.10;99.90
14317;DHT22;7242;50.858;6.586;2022-08-21T19:05:50;23.10;99.90
14317;DHT22;7242;50.858;6.586;2022-08-21T19:08:51;23.10;99.90
14317;DHT22;7242;50.858;6.586;2022-08-21T19:14:53;22.90;99.90
14317;DHT22;7242;50.858;6.586;2022-08-21T19:17:54;22.90;99.90
14317;DHT22;7242;50.858;6.586;2022-08-21T19:20:55;22.90;99.90
14317;DHT22;7242;50.858;6.586;2022-08-21T19:23:56;22.90;99.90
14317;DHT22;7242;50.858;6.586;2022-08-21T19:26:57;22.80;99.90
14317;DHT22;7242;50.858;6.586;2022-08-21T19:29:59;22.80;99.90
14317;DHT22;7242;50.858;6.586;2022-08-21T19:33:00;22.70;99.90
14317;DHT22;7242;50.858;6.586;2022-08-21T19:36:01;22.70;99.90
14317;DHT22;7242;50.858;6.586;2022-08-21T19:39:03;22.70;99.90
14317;DHT22;7242;50.858;6.586;2022-08-21T19:42:04;22.70;99.90
14317;DHT22;7242;50.858;6.586;2022-08-21T19:45:06;22.70;99.90
14317;DHT22;7242;50.858;6.586;2022-08-21T19:48:08;22.70;99.90
14317;DHT22;7242;50.858;6.586;2022-08-21T19:51:09;22.70;99.90
14317;DHT22;7242;50.858;6.586;2022-08-21T19:54:22;22.60;99.90
14317;DHT22;7242;50.858;6.586;2022-08-21T19:57:23;22.60;99.90
14317;DHT22;7242;50.858;6.586;2022-08-21T20:00:24;22.60;99.90
14317;DHT22;7242;50.858;6.586;2022-08-21T20:06:26;22.50;99.90
14317;DHT22;7242;50.858;6.586;2022-08-21T20:09:27;22.50;99.90
14317;DHT22;7242;50.858;6.586;2022-08-21T20:12:28;22.50;99.90
14317;DHT22;7242;50.858;6.586;2022-08-21T20:15:29;22.50;99.90
14317;DHT22;7242;50.858;6.586;2022-08-21T20:18:30;22.50;99.90
14317;DHT22;7242;50.858;6.586;2022-08-21T20:21:34;22.50;99.90
14317;DHT22;7242;50.858;6.586;2022-08-21T20:27:37;22.40;99.90
14317;DHT22;7242;50.858;6.586;2022-08-21T20:30:39;22.40;99.90
14317;DHT22;7242;50.858;6.586;2022-08-21T20:36:42;22.30;99.90
14317;DHT22;7242;50.858;6.586;2022-08-21T20:39:45;22.30;99.90
14317;DHT22;7242;50.858;6.586;2022-08-21T20:42:49;22.30;99.90
14317;DHT22;7242;50.858;6.586;2022-08-21T20:48:53;22.30;99.90
14317;DHT22;7242;50.858;6.586;2022-08-21T20:51:54;22.20;99.90
14317;DHT22;7242;50.858;6.586;2022-08-21T20:55:09;22.20;99.90
14317;DHT22;7242;50.858;6.586;2022-08-21T21:01:30;22.20;99.90
14317;DHT22;7242;50.858;6.586;2022-08-21T21:04:42;22.20;99.90
14317;DHT22;7242;50.858;6.586;2022-08-21T21:11:27;22.10;99.90
14317;DHT22;7242;50.858;6.586;2022-08-21T21:14:42;22.10;99.90
14317;DHT22;7242;50.858;6.586;2022-08-21T21:17:54;22.00;99.90
14317;DHT22;7242;50.858;6.586;2022-08-21T21:21:12;22.00;99.90
14317;DHT22;7242;50.858;6.586;2022-08-21T21:24:20;22.00;99.90
14317;DHT22;7242;50.858;6.586;2022-08-21T21:27:52;21.90;99.90
14317;DHT22;7242;50.858;6.586;2022-08-21T21:30:49;21.90;99.90
14317;DHT22;7242;50.858;6.586;2022-08-21T21:43:24;21.80;99.90
14317;DHT22;7242;50.858;6.586;2022-08-21T21:46:42;21.70;99.90
14317;DHT22;7242;50.858;6.586;2022-08-21T21:49:56;21.70;99.90
14317;DHT22;7242;50.858;6.586;2022-08-21T22:06:11;21.60;99.90
14317;DHT22;7242;50.858;6.586;2022-08-21T22:09:42;21.60;99.90
14317;DHT22;7242;50.858;6.586;2022-08-21T22:16:13;21.50;99.90
14317;DHT22;7242;50.858;6.586;2022-08-21T22:19:26;21.50;99.90
14317;DHT22;7242;50.858;6.586;2022-08-21T22:22:29;21.50;99.90
14317;DHT22;7242;50.858;6.586;2022-08-21T22:25:35;21.50;99.90
14317;DHT22;7242;50.858;6.586;2022-08-21T22:28:40;21.40;99.90
14317;DHT22;7242;50.858;6.586;2022-08-21T22:31:42;21.40;99.90
14317;DHT22;7242;50.858;6.586;2022-08-21T22:38:26;21.30;99.90
14317;DHT22;7242;50.858;6.586;2022-08-21T22:41:30;21.30;99.90
14317;DHT22;7242;50.858;6.586;2022-08-21T22:47:42;21.20;99.90
14317;DHT22;7242;50.858;6.586;2022-08-21T22:50:44;21.20;99.90
14317;DHT22;7242;50.858;6.586;2022-08-21T22:53:51;21.20;99.90
14317;DHT22;7242;50.858;6.586;2022-08-21T23:03:56;21.10;99.90
14317;DHT22;7242;50.858;6.586;2022-08-21T23:06:59;21.10;99.90
14317;DHT22;7242;50.858;6.586;2022-08-21T23:10:03;21.10;99.90
14317;DHT22;7242;50.858;6.586;2022-08-21T23:13:11;21.10;99.90
14317;DHT22;7242;50.858;6.586;2022-08-21T23:23:28;21.00;99.90
14317;DHT22;7242;50.858;6.586;2022-08-21T23:30:20;21.00;99.90
14317;DHT22;7242;50.858;6.586;2022-08-21T23:33:50;20.90;99.90
14317;DHT22;7242;50.858;6.586;2022-08-21T23:40:48;20.90;99.90
14317;DHT22;7242;50.858;6.586;2022-08-21T23:54:18;20.80;99.90
